sensor_id;sensor_type;location;lat;lon;timestamp;temperature;humidity
6379;DHT22;3222;48.858;10.128;2023-03-23T00:00:59;11.80;99.90
6379;DHT22;3222;48.858;10.128;2023-03-23T00:03:26;11.70;99.90
6379;DHT22;3222;48.858;10.128;2023-03-23T00:05:54;11.70;99.90
6379;DHT22;3222;48.858;10.128;2023-03-23T00:08:25;11.80;99.90
6379;DHT22;3222;48.858;10.128;2023-03-23T00:10:52;11.90;99.90
6379;DHT22;3222;48.858;10.128;2023-03-23T00:13:25;11.90;99.90
6379;DHT22;3222;48.858;10.128;2023-03-23T00:15:51;11.90;99.90
6379;DHT22;3222;48.858;10.128;2023-03-23T00:18:22;11.90;99.90
6379;DHT22;3222;48.858;10.128;2023-03-23T00:20:50;11.80;99.90
6379;DHT22;3222;48.858;10.128;2023-03-23T00:23:21;11.80;99.90
6379;DHT22;3222;48.858;10.128;2023-03-23T00:25:50;11.80;99.90
6379;DHT22;3222;48.858;10.128;2023-03-23T00:28:19;11.80;99.90
6379;DHT22;3222;48.858;10.128;2023-03-23T00:31:01;11.90;99.90
6379;DHT22;3222;48.858;10.128;2023-03-23T00:33:29;11.90;99.90
6379;DHT22;3222;48.858;10.128;2023-03-23T00:35:56;12.00;99.90
6379;DHT22;3222;48.858;10.128;2023-03-23T00:38:23;12.00;99.90
6379;DHT22;3222;48.858;10.128;2023-03-23T00:40:49;11.80;99.90
6379;DHT22;3222;48.858;10.128;2023-03-23T00:43:19;11.70;99.90
6379;DHT22;3222;48.858;10.128;2023-03-23T00:45:45;11.70;99.90
6379;DHT22;3222;48.858;10.128;2023-03-23T00:48:22;11.80;99.90
6379;DHT22;3222;48.858;10.128;2023-03-23T00:50:48;11.60;99.90
6379;DHT22;3222;48.858;10.128;2023-03-23T00:53:15;11.70;99.90
6379;DHT22;3222;48.858;10.128;2023-03-23T00:55:42;11.70;99.90
6379;DHT22;3222;48.858;10.128;2023-03-23T00:58:08;11.60;99.90
6379;DHT22;3222;48.858;10.128;2023-03-23T01:00:36;11.50;99.90
6379;DHT22;3222;48.858;10.128;2023-03-23T01:03:03;11.60;99.90
6379;DHT22;3222;48.858;10.128;2023-03-23T01:05:33;11.50;99.90
6379;DHT22;3222;48.858;10.128;2023-03-23T01:07:59;11.40;99.90
6379;DHT22;3222;48.858;10.128;2023-03-23T01:10:25;11.40;99.90
6379;DHT22;3222;48.858;10.128;2023-03-23T01:12:53;11.40;99.90
6379;DHT22;3222;48.858;10.128;2023-03-23T01:15:21;11.30;99.90
6379;DHT22;3222;48.858;10.128;2023-03-23T01:17:48;11.40;99.90
6379;DHT22;3222;48.858;10.128;2023-03-23T01:20:15;11.50;99.90
6379;DHT22;3222;48.858;10.128;2023-03-23T01:22:42;11.40;99.90
6379;DHT22;3222;48.858;10.128;2023-03-23T01:25:09;11.40;99.90
6379;DHT22;3222;48.858;10.128;2023-03-23T01:27:36;11.50;99.90
6379;DHT22;3222;48.858;10.128;2023-03-23T01:30:03;11.50;99.90
6379;DHT22;3222;48.858;10.128;2023-03-23T01:32:29;11.40;99.90
6379;DHT22;3222;48.858;10.128;2023-03-23T01:34:55;11.40;99.90
6379;DHT22;3222;48.858;10.128;2023-03-23T01:37:21;11.50;99.90
6379;DHT22;3222;48.858;10.128;2023-03-23T01:39:56;11.40;99.90
6379;DHT22;3222;48.858;10.128;2023-03-23T01:42:23;11.40;99.90
6379;DHT22;3222;48.858;10.128;2023-03-23T01:47:19;11.30;99.90
6379;DHT22;3222;48.858;10.128;2023-03-23T01:49:49;11.30;99.90
6379;DHT22;3222;48.858;10.128;2023-03-23T01:52:22;11.30;99.90
6379;DHT22;3222;48.858;10.128;2023-03-23T01:54:52;11.20;99.90
6379;DHT22;3222;48.858;10.128;2023-03-23T01:57:22;11.20;99.90
6379;DHT22;3222;48.858;10.128;2023-03-23T01:59:51;11.30;99.90
6379;DHT22;3222;48.858;10.128;2023-03-23T02:02:24;11.30;99.90
6379;DHT22;3222;48.858;10.128;2023-03-23T02:04:51;11.20;99.90
6379;DHT22;3222;48.858;10.128;2023-03-23T02:07:21;11.30;99.90
6379;DHT22;3222;48.858;10.128;2023-03-23T02:09:50;11.40;99.90
6379;DHT22;3222;48.858;10.128;2023-03-23T02:12:17;11.30;99.90
6379;DHT22;3222;48.858;10.128;2023-03-23T02:14:43;11.50;99.90
6379;DHT22;3222;48.858;10.128;2023-03-23T02:17:20;11.50;99.90
6379;DHT22;3222;48.858;10.128;2023-03-23T02:33:29;11.90;99.90
6379;DHT22;3222;48.858;10.128;2023-03-23T02:36:02;11.90;99.90
6379;DHT22;3222;48.858;10.128;2023-03-23T02:38:41;11.90;99.90
6379;DHT22;3222;48.858;10.128;2023-03-23T02:41:10;11.80;99.90
6379;DHT22;3222;48.858;10.128;2023-03-23T02:43:40;11.80;99.90
6379;DHT22;3222;48.858;10.128;2023-03-23T02:46:10;11.70;99.90
6379;DHT22;3222;48.858;10.128;2023-03-23T02:48:37;11.90;99.90
6379;DHT22;3222;48.858;10.128;2023-03-23T02:51:04;11.90;99.90
6379;DHT22;3222;48.858;10.128;2023-03-23T02:53:30;11.90;99.90
6379;DHT22;3222;48.858;10.128;2023-03-23T02:55:59;11.90;99.90
6379;DHT22;3222;48.858;10.128;2023-03-23T02:58:29;11.90;99.90
6379;DHT22;3222;48.858;10.128;2023-03-23T03:00:56;11.90;99.90
6379;DHT22;3222;48.858;10.128;2023-03-23T03:03:24;12.00;99.90
6379;DHT22;3222;48.858;10.128;2023-03-23T03:06:23;11.90;99.90
6379;DHT22;3222;48.858;10.128;2023-03-23T03:09:05;12.00;99.90
6379;DHT22;3222;48.858;10.128;2023-03-23T03:11:35;11.90;99.90
6379;DHT22;3222;48.858;10.128;2023-03-23T03:14:08;11.90;99.90
6379;DHT22;3222;48.858;10.128;2023-03-23T03:19:15;12.00;99.90
6379;DHT22;3222;48.858;10.128;2023-03-23T03:21:44;11.90;99.90
6379;DHT22;3222;48.858;10.128;2023-03-23T03:24:15;11.90;99.90
6379;DHT22;3222;48.858;10.128;2023-03-23T03:26:47;12.00;99.90
6379;DHT22;3222;48.858;10.128;2023-03-23T03:29:25;12.00;99.90
6379;DHT22;3222;48.858;10.128;2023-03-23T03:31:54;12.00;99.90
6379;DHT22;3222;48.858;10.128;2023-03-23T03:34:24;12.00;99.90
6379;DHT22;3222;48.858;10.128;2023-03-23T03:36:53;11.90;99.90
6379;DHT22;3222;48.858;10.128;2023-03-23T03:39:20;11.90;99.90
6379;DHT22;3222;48.858;10.128;2023-03-23T03:41:47;11.90;99.90
6379;DHT22;3222;48.858;10.128;2023-03-23T03:44:14;12.00;99.90
6379;DHT22;3222;48.858;10.128;2023-03-23T03:46:40;12.00;99.90
6379;DHT22;3222;48.858;10.128;2023-03-23T03:49:08;12.10;99.90
6379;DHT22;3222;48.858;10.128;2023-03-23T03:51:37;12.00;99.90
6379;DHT22;3222;48.858;10.128;2023-03-23T03:54:04;12.00;99.90
6379;DHT22;3222;48.858;10.128;2023-03-23T03:56:30;12.00;99.90
6379;DHT22;3222;48.858;10.128;2023-03-23T03:59:21;12.00;99.90
6379;DHT22;3222;48.858;10.128;2023-03-23T04:02:04;12.00;99.90
6379;DHT22;3222;48.858;10.128;2023-03-23T04:04:29;12.10;99.90
6379;DHT22;3222;48.858;10.128;2023-03-23T04:06:55;12.10;99.90
6379;DHT22;3222;48.858;10.128;2023-03-23T04:09:21;12.00;99.90
6379;DHT22;3222;48.858;10.128;2023-03-23T04:11:47;12.10;99.90
6379;DHT22;3222;48.858;10.128;2023-03-23T04:14:31;12.00;99.90
6379;DHT22;3222;48.858;10.128;2023-03-23T04:16:57;12.10;99.90
6379;DHT22;3222;48.858;10.128;2023-03-23T04:19:24;12.00;99.90
6379;DHT22;3222;48.858;10.128;2023-03-23T04:21:50;12.10;99.90
6379;DHT22;3222;48.858;10.128;2023-03-23T04:24:17;12.10;99.90
6379;DHT22;3222;48.858;10.128;2023-03-23T04:26:47;12.10;99.90
6379;DHT22;3222;48.858;10.128;2023-03-23T04:29:21;12.10;99.90
6379;DHT22;3222;48.858;10.128;2023-03-23T04:32:09;12.10;99.90
6379;DHT22;3222;48.858;10.128;2023-03-23T04:34:39;12.10;99.90
6379;DHT22;3222;48.858;10.128;2023-03-23T04:37:06;12.10;99.90
6379;DHT22;3222;48.858;10.128;2023-03-23T04:39:34;12.10;99.90
6379;DHT22;3222;48.858;10.128;2023-03-23T04:42:02;12.10;99.90
6379;DHT22;3222;48.858;10.128;2023-03-23T04:44:46;12.10;99.90
6379;DHT22;3222;48.858;10.128;2023-03-23T04:47:25;12.00;99.90
6379;DHT22;3222;48.858;10.128;2023-03-23T04:49:56;12.00;99.90
6379;DHT22;3222;48.858;10.128;2023-03-23T04:52:29;12.00;99.90
6379;DHT22;3222;48.858;10.128;2023-03-23T04:54:56;12.10;99.90
6379;DHT22;3222;48.858;10.128;2023-03-23T04:57:23;12.10;99.90
6379;DHT22;3222;48.858;10.128;2023-03-23T05:00:11;12.00;99.90
6379;DHT22;3222;48.858;10.128;2023-03-23T05:02:42;12.00;99.90
6379;DHT22;3222;48.858;10.128;2023-03-23T05:05:09;12.00;99.90
6379;DHT22;3222;48.858;10.128;2023-03-23T05:07:37;12.00;99.90
6379;DHT22;3222;48.858;10.128;2023-03-23T05:10:04;11.90;99.90
6379;DHT22;3222;48.858;10.128;2023-03-23T05:12:30;12.10;99.90
6379;DHT22;3222;48.858;10.128;2023-03-23T05:15:00;12.10;99.90
6379;DHT22;3222;48.858;10.128;2023-03-23T05:17:28;12.10;99.90
6379;DHT22;3222;48.858;10.128;2023-03-23T05:19:56;12.00;99.90
6379;DHT22;3222;48.858;10.128;2023-03-23T05:22:33;12.10;99.90
6379;DHT22;3222;48.858;10.128;2023-03-23T05:25:01;12.10;99.90
6379;DHT22;3222;48.858;10.128;2023-03-23T05:27:33;12.20;99.90
6379;DHT22;3222;48.858;10.128;2023-03-23T05:30:05;12.20;99.90
6379;DHT22;3222;48.858;10.128;2023-03-23T05:32:32;12.10;99.90
6379;DHT22;3222;48.858;10.128;2023-03-23T05:35:12;12.10;99.90
6379;DHT22;3222;48.858;10.128;2023-03-23T05:37:38;12.10;99.90
6379;DHT22;3222;48.858;10.128;2023-03-23T05:40:09;12.10;99.90
6379;DHT22;3222;48.858;10.128;2023-03-23T05:42:54;12.10;99.90
6379;DHT22;3222;48.858;10.128;2023-03-23T05:45:28;12.10;99.90
6379;DHT22;3222;48.858;10.128;2023-03-23T05:47:54;12.00;99.90
6379;DHT22;3222;48.858;10.128;2023-03-23T05:50:20;12.00;99.90
6379;DHT22;3222;48.858;10.128;2023-03-23T05:52:46;12.10;99.90
6379;DHT22;3222;48.858;10.128;2023-03-23T05:55:14;12.20;99.90
6379;DHT22;3222;48.858;10.128;2023-03-23T05:57:43;12.20;99.90
6379;DHT22;3222;48.858;10.128;2023-03-23T06:00:25;12.20;99.90
6379;DHT22;3222;48.858;10.128;2023-03-23T06:03:01;12.20;99.90
6379;DHT22;3222;48.858;10.128;2023-03-23T06:05:44;12.30;99.90
6379;DHT22;3222;48.858;10.128;2023-03-23T06:08:11;12.30;99.90
6379;DHT22;3222;48.858;10.128;2023-03-23T06:10:37;12.30;99.90
6379;DHT22;3222;48.858;10.128;2023-03-23T06:13:04;12.30;99.90
6379;DHT22;3222;48.858;10.128;2023-03-23T06:15:46;12.20;99.90
6379;DHT22;3222;48.858;10.128;2023-03-23T06:18:45;12.30;99.90
6379;DHT22;3222;48.858;10.128;2023-03-23T06:21:22;12.20;99.90
6379;DHT22;3222;48.858;10.128;2023-03-23T06:23:54;12.20;99.90
6379;DHT22;3222;48.858;10.128;2023-03-23T06:26:27;12.30;99.90
6379;DHT22;3222;48.858;10.128;2023-03-23T06:28:58;12.40;99.90
6379;DHT22;3222;48.858;10.128;2023-03-23T06:31:26;12.40;99.90
6379;DHT22;3222;48.858;10.128;2023-03-23T06:33:52;12.40;99.90
6379;DHT22;3222;48.858;10.128;2023-03-23T06:36:24;12.30;99.90
6379;DHT22;3222;48.858;10.128;2023-03-23T06:39:10;12.30;99.90
6379;DHT22;3222;48.858;10.128;2023-03-23T06:41:57;12.30;99.90
6379;DHT22;3222;48.858;10.128;2023-03-23T06:44:25;12.30;99.90
6379;DHT22;3222;48.858;10.128;2023-03-23T06:46:52;12.30;99.90
6379;DHT22;3222;48.858;10.128;2023-03-23T06:49:23;12.30;99.90
6379;DHT22;3222;48.858;10.128;2023-03-23T06:51:55;12.30;99.90
6379;DHT22;3222;48.858;10.128;2023-03-23T06:54:25;12.30;99.90
6379;DHT22;3222;48.858;10.128;2023-03-23T06:56:51;12.40;99.90
6379;DHT22;3222;48.858;10.128;2023-03-23T06:59:17;12.30;99.90
6379;DHT22;3222;48.858;10.128;2023-03-23T07:01:43;12.40;99.90
6379;DHT22;3222;48.858;10.128;2023-03-23T07:04:09;12.40;99.90
6379;DHT22;3222;48.858;10.128;2023-03-23T07:06:43;12.40;99.90
6379;DHT22;3222;48.858;10.128;2023-03-23T07:09:09;12.30;99.90
6379;DHT22;3222;48.858;10.128;2023-03-23T07:11:35;12.40;99.90
6379;DHT22;3222;48.858;10.128;2023-03-23T07:14:07;12.40;99.90
6379;DHT22;3222;48.858;10.128;2023-03-23T07:16:33;12.40;99.90
6379;DHT22;3222;48.858;10.128;2023-03-23T07:19:00;12.50;99.90
6379;DHT22;3222;48.858;10.128;2023-03-23T07:21:26;12.40;99.90
6379;DHT22;3222;48.858;10.128;2023-03-23T07:23:52;12.50;99.90
6379;DHT22;3222;48.858;10.128;2023-03-23T07:26:30;12.40;99.90
6379;DHT22;3222;48.858;10.128;2023-03-23T07:28:56;12.50;99.90
6379;DHT22;3222;48.858;10.128;2023-03-23T07:31:47;12.50;99.90
6379;DHT22;3222;48.858;10.128;2023-03-23T07:34:14;12.50;99.90
6379;DHT22;3222;48.858;10.128;2023-03-23T07:37:03;12.50;99.90
6379;DHT22;3222;48.858;10.128;2023-03-23T07:39:32;12.50;99.90
6379;DHT22;3222;48.858;10.128;2023-03-23T07:41:59;12.50;99.90
6379;DHT22;3222;48.858;10.128;2023-03-23T07:44:41;12.50;99.90
6379;DHT22;3222;48.858;10.128;2023-03-23T07:47:09;12.50;99.90
6379;DHT22;3222;48.858;10.128;2023-03-23T07:49:35;12.70;99.90
6379;DHT22;3222;48.858;10.128;2023-03-23T07:52:23;12.60;99.90
6379;DHT22;3222;48.858;10.128;2023-03-23T07:54:50;12.60;99.90
6379;DHT22;3222;48.858;10.128;2023-03-23T07:57:38;12.60;99.90
6379;DHT22;3222;48.858;10.128;2023-03-23T08:00:05;12.50;99.90
6379;DHT22;3222;48.858;10.128;2023-03-23T08:02:41;12.60;99.90
6379;DHT22;3222;48.858;10.128;2023-03-23T08:05:30;12.60;99.90
6379;DHT22;3222;48.858;10.128;2023-03-23T08:08:12;12.50;99.90
6379;DHT22;3222;48.858;10.128;2023-03-23T08:11:17;12.60;99.90
6379;DHT22;3222;48.858;10.128;2023-03-23T08:14:17;12.70;99.90
6379;DHT22;3222;48.858;10.128;2023-03-23T08:17:16;12.70;99.90
6379;DHT22;3222;48.858;10.128;2023-03-23T08:20:00;12.70;99.90
6379;DHT22;3222;48.858;10.128;2023-03-23T08:46:02;12.70;99.90
6379;DHT22;3222;48.858;10.128;2023-03-23T08:48:51;12.80;99.90
6379;DHT22;3222;48.858;10.128;2023-03-23T08:51:23;12.80;99.90
6379;DHT22;3222;48.858;10.128;2023-03-23T08:54:04;12.80;99.90
6379;DHT22;3222;48.858;10.128;2023-03-23T08:56:46;12.90;99.90
6379;DHT22;3222;48.858;10.128;2023-03-23T08:59:26;12.90;99.90
6379;DHT22;3222;48.858;10.128;2023-03-23T09:01:59;12.90;99.90
6379;DHT22;3222;48.858;10.128;2023-03-23T09:04:35;13.00;99.90
6379;DHT22;3222;48.858;10.128;2023-03-23T09:07:23;13.00;99.90
6379;DHT22;3222;48.858;10.128;2023-03-23T09:09:49;13.10;99.90
6379;DHT22;3222;48.858;10.128;2023-03-23T09:12:15;13.10;99.90
6379;DHT22;3222;48.858;10.128;2023-03-23T09:14:41;13.10;99.90
6379;DHT22;3222;48.858;10.128;2023-03-23T09:17:06;13.10;99.90
6379;DHT22;3222;48.858;10.128;2023-03-23T09:19:33;13.20;99.90
6379;DHT22;3222;48.858;10.128;2023-03-23T09:21:59;13.20;99.90
6379;DHT22;3222;48.858;10.128;2023-03-23T09:24:26;13.30;99.90
6379;DHT22;3222;48.858;10.128;2023-03-23T09:26:52;13.20;99.90
6379;DHT22;3222;48.858;10.128;2023-03-23T09:29:18;13.30;99.90
6379;DHT22;3222;48.858;10.128;2023-03-23T09:31:44;13.30;99.90
6379;DHT22;3222;48.858;10.128;2023-03-23T09:34:12;13.30;99.90
6379;DHT22;3222;48.858;10.128;2023-03-23T09:36:38;13.30;99.90
6379;DHT22;3222;48.858;10.128;2023-03-23T09:39:08;13.20;99.90
6379;DHT22;3222;48.858;10.128;2023-03-23T09:46:55;13.30;99.90
6379;DHT22;3222;48.858;10.128;2023-03-23T09:49:34;13.40;99.90
6379;DHT22;3222;48.858;10.128;2023-03-23T09:52:07;13.50;99.90
6379;DHT22;3222;48.858;10.128;2023-03-23T09:54:37;13.50;99.90
6379;DHT22;3222;48.858;10.128;2023-03-23T09:57:04;13.50;99.90
6379;DHT22;3222;48.858;10.128;2023-03-23T10:05:22;13.50;99.90
6379;DHT22;3222;48.858;10.128;2023-03-23T10:07:49;13.50;99.90
6379;DHT22;3222;48.858;10.128;2023-03-23T10:10:15;13.50;99.90
6379;DHT22;3222;48.858;10.128;2023-03-23T10:13:02;13.50;99.90
6379;DHT22;3222;48.858;10.128;2023-03-23T10:15:34;13.50;99.90
6379;DHT22;3222;48.858;10.128;2023-03-23T10:18:13;13.50;99.90
6379;DHT22;3222;48.858;10.128;2023-03-23T10:20:47;13.50;99.90
6379;DHT22;3222;48.858;10.128;2023-03-23T10:29:11;13.40;99.90
6379;DHT22;3222;48.858;10.128;2023-03-23T10:31:48;13.50;99.90
6379;DHT22;3222;48.858;10.128;2023-03-23T10:34:24;13.50;99.90
6379;DHT22;3222;48.858;10.128;2023-03-23T10:37:23;13.50;99.90
6379;DHT22;3222;48.858;10.128;2023-03-23T10:39:53;13.50;99.90
6379;DHT22;3222;48.858;10.128;2023-03-23T10:42:27;13.50;99.90
6379;DHT22;3222;48.858;10.128;2023-03-23T10:44:55;13.50;99.90
6379;DHT22;3222;48.858;10.128;2023-03-23T10:47:22;13.60;99.90
6379;DHT22;3222;48.858;10.128;2023-03-23T10:49:54;13.60;99.90
6379;DHT22;3222;48.858;10.128;2023-03-23T10:52:42;13.60;99.90
6379;DHT22;3222;48.858;10.128;2023-03-23T10:55:10;13.50;99.90
6379;DHT22;3222;48.858;10.128;2023-03-23T10:57:39;13.60;99.90
6379;DHT22;3222;48.858;10.128;2023-03-23T11:02:46;13.60;99.90
6379;DHT22;3222;48.858;10.128;2023-03-23T11:05:19;13.50;99.90
6379;DHT22;3222;48.858;10.128;2023-03-23T11:07:52;13.60;99.90
6379;DHT22;3222;48.858;10.128;2023-03-23T11:10:27;13.50;99.90
6379;DHT22;3222;48.858;10.128;2023-03-23T11:12:58;13.60;99.90
6379;DHT22;3222;48.858;10.128;2023-03-23T11:15:29;13.50;99.90
6379;DHT22;3222;48.858;10.128;2023-03-23T11:18:03;13.50;99.90
6379;DHT22;3222;48.858;10.128;2023-03-23T11:20:35;13.50;99.90
6379;DHT22;3222;48.858;10.128;2023-03-23T11:23:14;13.50;99.90
6379;DHT22;3222;48.858;10.128;2023-03-23T11:28:37;13.60;99.90
6379;DHT22;3222;48.858;10.128;2023-03-23T11:31:05;13.60;99.90
6379;DHT22;3222;48.858;10.128;2023-03-23T11:34:04;13.60;99.90
6379;DHT22;3222;48.858;10.128;2023-03-23T11:36:40;13.60;99.90
6379;DHT22;3222;48.858;10.128;2023-03-23T11:39:23;13.70;99.90
6379;DHT22;3222;48.858;10.128;2023-03-23T11:41:49;13.60;99.90
6379;DHT22;3222;48.858;10.128;2023-03-23T11:44:15;13.60;99.90
6379;DHT22;3222;48.858;10.128;2023-03-23T11:47:00;13.60;99.90
6379;DHT22;3222;48.858;10.128;2023-03-23T11:49:42;13.70;99.90
6379;DHT22;3222;48.858;10.128;2023-03-23T11:52:22;13.60;99.90
6379;DHT22;3222;48.858;10.128;2023-03-23T11:54:58;13.70;99.90
6379;DHT22;3222;48.858;10.128;2023-03-23T11:57:25;13.70;99.90
6379;DHT22;3222;48.858;10.128;2023-03-23T11:59:50;13.80;99.90
6379;DHT22;3222;48.858;10.128;2023-03-23T12:05:37;14.00;99.90
6379;DHT22;3222;48.858;10.128;2023-03-23T12:13:33;14.00;99.90
6379;DHT22;3222;48.858;10.128;2023-03-23T12:16:24;14.10;99.90
6379;DHT22;3222;48.858;10.128;2023-03-23T12:19:25;14.10;99.90
6379;DHT22;3222;48.858;10.128;2023-03-23T12:25:43;14.20;99.90
6379;DHT22;3222;48.858;10.128;2023-03-23T12:28:14;14.30;99.90
6379;DHT22;3222;48.858;10.128;2023-03-23T12:33:50;14.30;99.90
6379;DHT22;3222;48.858;10.128;2023-03-23T12:36:50;14.40;99.90
6379;DHT22;3222;48.858;10.128;2023-03-23T12:42:20;14.50;99.90
6379;DHT22;3222;48.858;10.128;2023-03-23T12:45:37;14.50;99.90
6379;DHT22;3222;48.858;10.128;2023-03-23T12:53:46;14.50;99.90
6379;DHT22;3222;48.858;10.128;2023-03-23T12:56:23;14.60;99.90
6379;DHT22;3222;48.858;10.128;2023-03-23T12:58:54;14.50;99.90
6379;DHT22;3222;48.858;10.128;2023-03-23T13:01:27;14.50;99.90
6379;DHT22;3222;48.858;10.128;2023-03-23T13:06:41;14.60;99.90
6379;DHT22;3222;48.858;10.128;2023-03-23T13:11:53;14.70;99.90
6379;DHT22;3222;48.858;10.128;2023-03-23T13:14:47;14.60;99.90
6379;DHT22;3222;48.858;10.128;2023-03-23T13:17:39;14.60;99.90
6379;DHT22;3222;48.858;10.128;2023-03-23T13:20:34;14.60;99.90
6379;DHT22;3222;48.858;10.128;2023-03-23T13:23:21;14.60;99.90
6379;DHT22;3222;48.858;10.128;2023-03-23T13:28:27;14.60;99.90
6379;DHT22;3222;48.858;10.128;2023-03-23T13:31:02;14.60;99.90
6379;DHT22;3222;48.858;10.128;2023-03-23T13:33:34;14.60;99.90
6379;DHT22;3222;48.858;10.128;2023-03-23T13:36:09;14.60;99.90
6379;DHT22;3222;48.858;10.128;2023-03-23T13:38:36;14.60;99.90
6379;DHT22;3222;48.858;10.128;2023-03-23T13:41:11;14.60;99.90
6379;DHT22;3222;48.858;10.128;2023-03-23T13:43:39;14.60;99.90
6379;DHT22;3222;48.858;10.128;2023-03-23T13:49:02;14.60;99.90
6379;DHT22;3222;48.858;10.128;2023-03-23T13:54:23;14.60;99.90
6379;DHT22;3222;48.858;10.128;2023-03-23T13:57:02;14.60;99.90
6379;DHT22;3222;48.858;10.128;2023-03-23T13:59:32;14.70;99.90
6379;DHT22;3222;48.858;10.128;2023-03-23T14:02:21;14.70;99.90
6379;DHT22;3222;48.858;10.128;2023-03-23T14:04:52;14.80;99.90
6379;DHT22;3222;48.858;10.128;2023-03-23T14:07:20;14.70;99.90
6379;DHT22;3222;48.858;10.128;2023-03-23T14:09:46;14.70;99.90
6379;DHT22;3222;48.858;10.128;2023-03-23T14:12:22;14.80;99.90
6379;DHT22;3222;48.858;10.128;2023-03-23T14:14:56;14.70;99.90
6379;DHT22;3222;48.858;10.128;2023-03-23T14:17:34;14.70;99.90
6379;DHT22;3222;48.858;10.128;2023-03-23T14:20:05;14.80;99.90
6379;DHT22;3222;48.858;10.128;2023-03-23T14:22:37;14.70;99.90
6379;DHT22;3222;48.858;10.128;2023-03-23T14:25:15;14.70;99.90
6379;DHT22;3222;48.858;10.128;2023-03-23T14:27:41;14.70;99.90
6379;DHT22;3222;48.858;10.128;2023-03-23T14:30:16;14.70;99.90
6379;DHT22;3222;48.858;10.128;2023-03-23T14:32:42;14.70;99.90
6379;DHT22;3222;48.858;10.128;2023-03-23T14:35:26;14.70;99.90
6379;DHT22;3222;48.858;10.128;2023-03-23T14:37:53;14.70;99.90
6379;DHT22;3222;48.858;10.128;2023-03-23T14:40:20;14.70;99.90
6379;DHT22;3222;48.858;10.128;2023-03-23T14:42:47;14.70;99.90
6379;DHT22;3222;48.858;10.128;2023-03-23T14:45:16;14.60;99.90
6379;DHT22;3222;48.858;10.128;2023-03-23T14:48:09;14.60;99.90
6379;DHT22;3222;48.858;10.128;2023-03-23T14:50:49;14.70;99.90
6379;DHT22;3222;48.858;10.128;2023-03-23T14:53:21;14.60;99.90
6379;DHT22;3222;48.858;10.128;2023-03-23T14:55:48;14.70;99.90
6379;DHT22;3222;48.858;10.128;2023-03-23T14:58:17;14.70;99.90
6379;DHT22;3222;48.858;10.128;2023-03-23T15:00:51;14.60;99.90
6379;DHT22;3222;48.858;10.128;2023-03-23T15:03:18;14.60;99.90
6379;DHT22;3222;48.858;10.128;2023-03-23T15:05:52;14.70;99.90
6379;DHT22;3222;48.858;10.128;2023-03-23T15:08:27;14.60;99.90
6379;DHT22;3222;48.858;10.128;2023-03-23T15:13:46;14.70;99.90
6379;DHT22;3222;48.858;10.128;2023-03-23T15:16:17;14.60;99.90
6379;DHT22;3222;48.858;10.128;2023-03-23T15:18:55;14.60;99.90
6379;DHT22;3222;48.858;10.128;2023-03-23T15:21:28;14.60;99.90
6379;DHT22;3222;48.858;10.128;2023-03-23T15:23:55;14.50;99.90
6379;DHT22;3222;48.858;10.128;2023-03-23T15:26:27;14.50;99.90
6379;DHT22;3222;48.858;10.128;2023-03-23T15:31:43;14.40;99.90
6379;DHT22;3222;48.858;10.128;2023-03-23T15:34:15;14.50;99.90
6379;DHT22;3222;48.858;10.128;2023-03-23T15:36:42;14.50;99.90
6379;DHT22;3222;48.858;10.128;2023-03-23T15:39:12;14.50;99.90
6379;DHT22;3222;48.858;10.128;2023-03-23T15:41:49;14.60;99.90
6379;DHT22;3222;48.858;10.128;2023-03-23T15:44:28;14.50;99.90
6379;DHT22;3222;48.858;10.128;2023-03-23T15:47:32;14.40;99.90
6379;DHT22;3222;48.858;10.128;2023-03-23T15:50:02;14.40;99.90
6379;DHT22;3222;48.858;10.128;2023-03-23T15:52:28;14.50;99.90
6379;DHT22;3222;48.858;10.128;2023-03-23T15:54:56;14.40;99.90
6379;DHT22;3222;48.858;10.128;2023-03-23T15:57:21;14.40;99.90
6379;DHT22;3222;48.858;10.128;2023-03-23T15:59:47;14.50;99.90
6379;DHT22;3222;48.858;10.128;2023-03-23T16:02:18;14.30;99.90
6379;DHT22;3222;48.858;10.128;2023-03-23T16:04:45;14.30;99.90
6379;DHT22;3222;48.858;10.128;2023-03-23T16:07:11;14.30;99.90
6379;DHT22;3222;48.858;10.128;2023-03-23T16:09:39;14.30;99.90
6379;DHT22;3222;48.858;10.128;2023-03-23T16:12:12;14.40;99.90
6379;DHT22;3222;48.858;10.128;2023-03-23T16:14:38;14.50;99.90
6379;DHT22;3222;48.858;10.128;2023-03-23T16:17:04;14.50;99.90
6379;DHT22;3222;48.858;10.128;2023-03-23T16:19:30;14.50;99.90
6379;DHT22;3222;48.858;10.128;2023-03-23T16:21:56;14.40;99.90
6379;DHT22;3222;48.858;10.128;2023-03-23T16:24:21;14.50;99.90
6379;DHT22;3222;48.858;10.128;2023-03-23T16:26:47;14.40;99.90
6379;DHT22;3222;48.858;10.128;2023-03-23T16:29:15;14.40;99.90
6379;DHT22;3222;48.858;10.128;2023-03-23T16:31:41;14.40;99.90
6379;DHT22;3222;48.858;10.128;2023-03-23T16:34:07;14.40;99.90
6379;DHT22;3222;48.858;10.128;2023-03-23T16:36:33;14.30;99.90
6379;DHT22;3222;48.858;10.128;2023-03-23T16:38:58;14.20;99.90
6379;DHT22;3222;48.858;10.128;2023-03-23T16:41:24;14.30;99.90
6379;DHT22;3222;48.858;10.128;2023-03-23T16:43:50;14.20;99.90
6379;DHT22;3222;48.858;10.128;2023-03-23T16:46:16;14.30;99.90
6379;DHT22;3222;48.858;10.128;2023-03-23T16:48:42;14.20;99.90
6379;DHT22;3222;48.858;10.128;2023-03-23T16:51:08;14.20;99.90
6379;DHT22;3222;48.858;10.128;2023-03-23T16:53:33;14.20;99.90
6379;DHT22;3222;48.858;10.128;2023-03-23T16:56:00;14.20;99.90
6379;DHT22;3222;48.858;10.128;2023-03-23T16:58:26;14.20;99.90
6379;DHT22;3222;48.858;10.128;2023-03-23T17:00:51;14.30;99.90
6379;DHT22;3222;48.858;10.128;2023-03-23T17:03:19;14.30;99.90
6379;DHT22;3222;48.858;10.128;2023-03-23T17:05:47;14.30;99.90
6379;DHT22;3222;48.858;10.128;2023-03-23T17:08:14;14.20;99.90
6379;DHT22;3222;48.858;10.128;2023-03-23T17:10:40;14.20;99.90
6379;DHT22;3222;48.858;10.128;2023-03-23T17:13:08;14.20;99.90
6379;DHT22;3222;48.858;10.128;2023-03-23T17:15:39;14.20;99.90
6379;DHT22;3222;48.858;10.128;2023-03-23T17:18:06;14.20;99.90
6379;DHT22;3222;48.858;10.128;2023-03-23T17:20:31;14.20;99.90
6379;DHT22;3222;48.858;10.128;2023-03-23T17:22:57;14.10;99.90
6379;DHT22;3222;48.858;10.128;2023-03-23T17:25:25;14.20;99.90
6379;DHT22;3222;48.858;10.128;2023-03-23T17:27:51;14.20;99.90
6379;DHT22;3222;48.858;10.128;2023-03-23T17:30:17;14.20;99.90
6379;DHT22;3222;48.858;10.128;2023-03-23T17:32:42;14.10;99.90
6379;DHT22;3222;48.858;10.128;2023-03-23T17:35:08;14.20;99.90
6379;DHT22;3222;48.858;10.128;2023-03-23T17:37:35;14.10;99.90
6379;DHT22;3222;48.858;10.128;2023-03-23T17:40:02;14.10;99.90
6379;DHT22;3222;48.858;10.128;2023-03-23T17:42:28;14.00;99.90
6379;DHT22;3222;48.858;10.128;2023-03-23T17:44:54;13.90;99.90
6379;DHT22;3222;48.858;10.128;2023-03-23T17:47:20;13.90;99.90
6379;DHT22;3222;48.858;10.128;2023-03-23T17:49:45;14.00;99.90
6379;DHT22;3222;48.858;10.128;2023-03-23T17:52:12;13.90;99.90
6379;DHT22;3222;48.858;10.128;2023-03-23T17:54:38;13.90;99.90
6379;DHT22;3222;48.858;10.128;2023-03-23T17:57:03;13.80;99.90
6379;DHT22;3222;48.858;10.128;2023-03-23T17:59:29;14.00;99.90
6379;DHT22;3222;48.858;10.128;2023-03-23T18:01:56;13.90;99.90